Time;durP1;ratioP1;P1;durP2;ratioP2;P2;SDS_P1;SDS_P2;PMS_P1;PMS_P2;Temp;Humidity;BMP_temperature;BMP_pressure;BME280_temperature;BME280_humidity;BME280_pressure;Samples;Min_cycle;Max_cycle;Signal;HPM_P1;HPM_P2
2022/03/11 00:01:10;;;;;;;7.75;4.90;;;;;;;;;;5033757;28;20041;-72
2022/03/11 00:03:38;;;;;;;5.47;4.57;;;;;;;;;;5033435;28;20041;-70
2022/03/11 00:06:07;;;;;;;7.88;4.75;;;;;;;;;;5033098;28;20107;-70
2022/03/11 00:08:34;;;;;;;12.20;5.28;;;;;;;;;;5033384;28;20068;-70
2022/03/11 00:11:05;;;;;;;8.00;4.60;;;;;;;;;;5033364;28;20099;-76
2022/03/11 00:13:32;;;;;;;9.88;4.68;;;;;;;;;;5033309;28;20128;-76
2022/03/11 00:16:01;;;;;;;9.05;5.15;;;;;;;;;;5033344;28;20512;-75
2022/03/11 00:18:29;;;;;;;7.53;4.60;;;;;;;;;;5032604;28;20068;-72
2022/03/11 00:20:56;;;;;;;7.72;4.43;;;;;;;;;;5032463;28;20045;-72
2022/03/11 00:23:24;;;;;;;6.63;4.70;;;;;;;;;;5032505;28;20608;-69
2022/03/11 00:25:52;;;;;;;8.48;4.70;;;;;;;;;;5031797;28;20041;-73
2022/03/11 00:28:19;;;;;;;12.45;4.97;;;;;;;;;;5032880;28;20197;-72
2022/03/11 00:30:47;;;;;;;7.68;5.00;;;;;;;;;;5006835;28;20049;-73
2022/03/11 00:33:14;;;;;;;6.60;4.88;;;;;;;;;;5033058;28;20215;-71
2022/03/11 00:35:43;;;;;;;8.00;4.78;;;;;;;;;;5032687;28;20064;-70
2022/03/11 00:38:10;;;;;;;8.05;5.15;;;;;;;;;;5014768;28;20140;-74
2022/03/11 00:40:38;;;;;;;13.18;5.13;;;;;;;;;;5032674;28;20038;-75
2022/03/11 00:43:06;;;;;;;8.90;4.85;;;;;;;;;;5014670;28;20049;-75
2022/03/11 00:45:35;;;;;;;8.05;4.43;;;;;;;;;;5032300;28;20061;-75
2022/03/11 00:48:03;;;;;;;9.35;5.07;;;;;;;;;;4998905;28;20042;-72
2022/03/11 00:50:30;;;;;;;10.55;5.07;;;;;;;;;;5032457;28;20053;-75
2022/03/11 00:52:59;;;;;;;9.88;5.22;;;;;;;;;;5032590;28;20041;-75
2022/03/11 00:55:29;;;;;;;7.25;4.72;;;;;;;;;;5032569;28;20120;-74
2022/03/11 00:57:56;;;;;;;7.60;4.47;;;;;;;;;;5032900;28;20053;-72
2022/03/11 01:00:24;;;;;;;8.07;4.55;;;;;;;;;;5032768;28;20056;-68
2022/03/11 01:02:51;;;;;;;8.30;4.80;;;;;;;;;;5032764;28;20380;-67
2022/03/11 01:05:19;;;;;;;7.57;4.88;;;;;;;;;;5033071;28;20046;-71
2022/03/11 01:07:46;;;;;;;9.82;5.15;;;;;;;;;;5015010;28;20041;-75
2022/03/11 01:10:14;;;;;;;10.45;4.80;;;;;;;;;;5014918;28;20476;-75
2022/03/11 01:12:42;;;;;;;9.25;4.82;;;;;;;;;;5032579;28;20042;-72
2022/03/11 01:15:10;;;;;;;6.65;4.75;;;;;;;;;;5028356;28;20124;-71
2022/03/11 01:17:38;;;;;;;8.35;4.75;;;;;;;;;;5030678;28;20058;-76
2022/03/11 01:20:11;;;;;;;9.18;4.32;;;;;;;;;;5031161;28;20044;-70
2022/03/11 01:22:40;;;;;;;11.02;6.97;;;;;;;;;;5014379;28;20478;-75
2022/03/11 01:25:08;;;;;;;6.60;4.65;;;;;;;;;;5031599;28;20034;-76
2022/03/11 01:27:39;;;;;;;7.07;5.15;;;;;;;;;;5013960;28;20408;-70
2022/03/11 01:30:09;;;;;;;8.70;4.38;;;;;;;;;;5031424;28;20092;-72
2022/03/11 01:32:37;;;;;;;9.48;4.97;;;;;;;;;;5031611;28;20037;-76
2022/03/11 01:35:05;;;;;;;7.00;4.38;;;;;;;;;;5031289;28;20120;-75
2022/03/11 01:37:36;;;;;;;7.50;4.45;;;;;;;;;;5013250;28;20048;-75
2022/03/11 01:40:04;;;;;;;5.82;4.07;;;;;;;;;;5031762;28;20061;-72
2022/03/11 01:42:34;;;;;;;7.00;4.28;;;;;;;;;;5032095;28;20048;-70
2022/03/11 01:45:02;;;;;;;7.25;4.10;;;;;;;;;;5032481;28;20037;-75
2022/03/11 01:47:29;;;;;;;8.15;4.35;;;;;;;;;;5014463;28;20596;-75
2022/03/11 01:49:57;;;;;;;10.00;4.38;;;;;;;;;;5017127;28;20107;-73
2022/03/11 01:52:25;;;;;;;7.38;4.05;;;;;;;;;;5018138;28;20088;-68
2022/03/11 01:54:53;;;;;;;7.25;4.13;;;;;;;;;;5035678;28;20037;-72
2022/03/11 01:57:21;;;;;;;6.22;3.92;;;;;;;;;;5036031;28;20060;-75
2022/03/11 01:59:49;;;;;;;7.93;3.97;;;;;;;;;;5035724;28;20064;-70
2022/03/11 02:02:17;;;;;;;5.78;3.70;;;;;;;;;;5035913;28;20108;-75
2022/03/11 02:04:45;;;;;;;5.80;3.67;;;;;;;;;;5018198;28;20492;-75
2022/03/11 02:07:12;;;;;;;16.60;4.55;;;;;;;;;;5035705;28;20519;-76
2022/03/11 02:09:40;;;;;;;9.20;4.07;;;;;;;;;;5018462;28;20056;-70
2022/03/11 02:12:08;;;;;;;5.88;3.55;;;;;;;;;;5035846;28;20048;-75
2022/03/11 02:14:36;;;;;;;5.78;4.00;;;;;;;;;;5035730;28;20041;-71
2022/03/11 02:17:03;;;;;;;6.32;3.85;;;;;;;;;;5017874;28;20045;-70
2022/03/11 02:19:33;;;;;;;6.90;3.42;;;;;;;;;;5017155;28;20049;-76
2022/03/11 02:22:02;;;;;;;8.15;3.70;;;;;;;;;;5035243;28;20041;-76
2022/03/11 02:24:31;;;;;;;7.60;4.07;;;;;;;;;;5017870;28;20112;-70
2022/03/11 02:27:00;;;;;;;6.20;3.75;;;;;;;;;;5017798;28;20050;-75
2022/03/11 02:29:28;;;;;;;4.97;3.50;;;;;;;;;;5035360;28;20049;-70
2022/03/11 02:31:56;;;;;;;6.30;3.83;;;;;;;;;;5034984;28;20128;-71
2022/03/11 02:34:23;;;;;;;5.25;3.33;;;;;;;;;;5034587;28;20045;-70
2022/03/11 02:36:51;;;;;;;6.72;3.58;;;;;;;;;;5033953;28;20059;-74
2022/03/11 02:39:20;;;;;;;6.47;3.28;;;;;;;;;;5051563;28;20048;-75
2022/03/11 02:41:49;;;;;;;7.07;3.40;;;;;;;;;;5055076;28;20070;-75
2022/03/11 02:44:18;;;;;;;6.57;4.00;;;;;;;;;;5055135;28;20480;-70
2022/03/11 02:46:46;;;;;;;6.60;4.05;;;;;;;;;;5055143;28;20037;-75
2022/03/11 02:49:14;;;;;;;9.75;4.15;;;;;;;;;;5054859;28;20063;-72
2022/03/11 02:51:41;;;;;;;7.72;3.70;;;;;;;;;;5037480;28;20037;-76
2022/03/11 02:54:09;;;;;;;4.70;4.13;;;;;;;;;;5054948;28;20132;-75
2022/03/11 02:56:37;;;;;;;7.93;4.18;;;;;;;;;;5054765;28;20098;-70
2022/03/11 02:59:04;;;;;;;7.25;4.38;;;;;;;;;;5054929;28;20067;-76
2022/03/11 03:01:33;;;;;;;7.10;4.28;;;;;;;;;;5036738;28;20092;-75
2022/03/11 03:04:01;;;;;;;9.50;4.22;;;;;;;;;;5054870;28;20040;-75
2022/03/11 03:06:29;;;;;;;8.05;4.25;;;;;;;;;;5054309;28;20037;-70
2022/03/11 03:08:59;;;;;;;6.05;4.20;;;;;;;;;;5054650;28;20047;-76
2022/03/11 03:11:27;;;;;;;7.40;4.15;;;;;;;;;;5054315;28;20057;-71
2022/03/11 03:13:54;;;;;;;5.88;4.10;;;;;;;;;;5054733;28;20044;-70
2022/03/11 03:16:22;;;;;;;5.53;3.95;;;;;;;;;;5034827;28;20504;-70
2022/03/11 03:18:50;;;;;;;4.63;3.90;;;;;;;;;;5014349;28;20056;-75
2022/03/11 03:21:17;;;;;;;5.57;3.60;;;;;;;;;;5014607;28;20046;-75
2022/03/11 03:23:46;;;;;;;5.68;3.40;;;;;;;;;;5014768;28;20490;-68
2022/03/11 03:26:14;;;;;;;5.93;3.58;;;;;;;;;;5014706;28;20112;-70
2022/03/11 03:28:41;;;;;;;5.15;3.63;;;;;;;;;;5014512;28;20050;-72
2022/03/11 03:31:18;;;;;;;4.15;3.10;;;;;;;;;;5013950;28;20041;-75
2022/03/11 03:33:47;;;;;;;4.53;3.00;;;;;;;;;;5014516;28;20052;-71
2022/03/11 03:36:15;;;;;;;4.32;3.15;;;;;;;;;;5014249;28;20038;-70
2022/03/11 03:38:42;;;;;;;5.25;3.35;;;;;;;;;;5013908;28;20054;-75
2022/03/11 03:41:10;;;;;;;7.10;3.50;;;;;;;;;;5014361;28;20050;-73
2022/03/11 03:43:39;;;;;;;4.75;3.08;;;;;;;;;;5012620;28;20038;-73
2022/03/11 03:46:07;;;;;;;9.43;3.45;;;;;;;;;;5014082;28;20034;-76
2022/03/11 03:48:34;;;;;;;4.65;3.10;;;;;;;;;;5012700;28;20048;-72
2022/03/11 03:51:04;;;;;;;7.15;3.30;;;;;;;;;;5012721;28;20053;-75
2022/03/11 03:53:32;;;;;;;6.55;3.60;;;;;;;;;;5013175;28;20133;-75
2022/03/11 03:56:01;;;;;;;4.53;3.00;;;;;;;;;;5012371;28;20456;-71
2022/03/11 03:58:32;;;;;;;4.57;2.88;;;;;;;;;;5013886;28;20034;-75
2022/03/11 04:01:00;;;;;;;7.15;3.13;;;;;;;;;;5012231;28;20064;-75
2022/03/11 04:03:28;;;;;;;7.63;3.30;;;;;;;;;;4996577;28;20042;-70
2022/03/11 04:06:01;;;;;;;6.25;3.25;;;;;;;;;;5013903;28;20046;-72
2022/03/11 04:08:30;;;;;;;9.80;2.95;;;;;;;;;;5013225;28;20053;-71
2022/03/11 04:10:57;;;;;;;6.00;3.00;;;;;;;;;;5013284;28;20041;-70
2022/03/11 04:13:25;;;;;;;13.80;3.70;;;;;;;;;;5013064;28;20042;-75
2022/03/11 04:15:53;;;;;;;6.28;3.03;;;;;;;;;;5013432;28;20045;-70
2022/03/11 04:18:23;;;;;;;6.13;3.15;;;;;;;;;;5013507;28;20445;-75
2022/03/11 04:20:50;;;;;;;6.43;3.00;;;;;;;;;;5012317;28;20037;-70
2022/03/11 04:23:18;;;;;;;6.78;3.28;;;;;;;;;;5013368;28;20453;-75
2022/03/11 04:25:46;;;;;;;4.60;2.97;;;;;;;;;;5012264;28;20041;-72
2022/03/11 04:28:13;;;;;;;6.75;3.30;;;;;;;;;;5013210;28;20044;-70
2022/03/11 04:30:42;;;;;;;5.65;3.17;;;;;;;;;;5013002;28;20042;-76
2022/03/11 04:33:09;;;;;;;6.75;3.30;;;;;;;;;;4995803;28;20073;-70
2022/03/11 04:35:37;;;;;;;5.30;3.30;;;;;;;;;;5013299;28;20052;-70
2022/03/11 04:38:04;;;;;;;5.50;2.97;;;;;;;;;;5013512;28;20064;-75
2022/03/11 04:40:32;;;;;;;3.53;2.92;;;;;;;;;;5013210;28;20485;-70
2022/03/11 04:43:02;;;;;;;3.45;2.78;;;;;;;;;;5011588;28;20065;-75
2022/03/11 04:45:33;;;;;;;5.97;3.05;;;;;;;;;;5013283;28;20429;-75
2022/03/11 04:48:00;;;;;;;5.03;3.13;;;;;;;;;;5013012;28;20042;-70
2022/03/11 04:50:30;;;;;;;6.63;3.50;;;;;;;;;;5013002;28;20073;-75
2022/03/11 04:52:58;;;;;;;5.32;3.20;;;;;;;;;;5012757;28;20138;-75
2022/03/11 04:55:26;;;;;;;7.55;3.28;;;;;;;;;;5012961;28;20108;-70
2022/03/11 04:57:55;;;;;;;6.13;3.28;;;;;;;;;;5013338;28;20128;-72
2022/03/11 05:00:23;;;;;;;4.82;3.10;;;;;;;;;;5013228;28;20196;-75
2022/03/11 05:02:50;;;;;;;16.80;3.50;;;;;;;;;;5012567;28;20072;-76
2022/03/11 05:05:18;;;;;;;4.60;3.33;;;;;;;;;;5013006;28;20052;-76
2022/03/11 05:07:46;;;;;;;6.30;3.50;;;;;;;;;;5012367;28;20508;-75
2022/03/11 05:10:16;;;;;;;6.75;3.20;;;;;;;;;;5012606;28;20092;-70
2022/03/11 05:12:44;;;;;;;5.93;4.03;;;;;;;;;;5012730;28;20041;-72
2022/03/11 05:15:13;;;;;;;5.90;3.70;;;;;;;;;;5011685;28;20045;-75
2022/03/11 05:17:41;;;;;;;7.10;4.03;;;;;;;;;;5012318;28;20056;-71
2022/03/11 05:20:09;;;;;;;5.15;3.58;;;;;;;;;;5012242;28;20132;-75
2022/03/11 05:22:36;;;;;;;10.07;4.18;;;;;;;;;;5011861;28;20062;-70
2022/03/11 05:25:04;;;;;;;8.30;3.97;;;;;;;;;;5016568;28;20512;-70
2022/03/11 05:27:31;;;;;;;10.25;4.28;;;;;;;;;;5016828;28;20041;-71
2022/03/11 05:30:00;;;;;;;7.07;4.28;;;;;;;;;;5016463;28;20541;-75
2022/03/11 05:32:29;;;;;;;7.57;3.83;;;;;;;;;;5016232;28;20076;-76
2022/03/11 05:34:57;;;;;;;9.52;4.35;;;;;;;;;;5016708;28;20052;-70
2022/03/11 05:37:24;;;;;;;7.45;3.92;;;;;;;;;;5016530;28;20042;-75
2022/03/11 05:39:52;;;;;;;7.00;3.90;;;;;;;;;;5016589;28;20046;-75
2022/03/11 05:42:21;;;;;;;10.65;3.67;;;;;;;;;;5016643;28;20045;-70
2022/03/11 05:44:50;;;;;;;7.05;3.70;;;;;;;;;;5016275;28;20361;-76
2022/03/11 05:47:18;;;;;;;8.55;4.32;;;;;;;;;;5016001;28;20502;-76
2022/03/11 05:49:46;;;;;;;6.38;3.78;;;;;;;;;;5016379;28;20038;-71
2022/03/11 05:52:13;;;;;;;10.77;3.70;;;;;;;;;;5015914;28;20048;-76
2022/03/11 05:54:42;;;;;;;6.90;3.90;;;;;;;;;;4998463;28;20112;-73
2022/03/11 05:57:10;;;;;;;7.82;3.38;;;;;;;;;;5015221;28;20062;-75
2022/03/11 05:59:38;;;;;;;9.95;4.00;;;;;;;;;;5016346;28;20418;-75
2022/03/11 06:02:06;;;;;;;9.77;3.92;;;;;;;;;;5030303;28;20573;-72
2022/03/11 06:04:34;;;;;;;5.65;3.67;;;;;;;;;;5015748;28;20493;-70
2022/03/11 06:07:01;;;;;;;8.70;3.90;;;;;;;;;;5015590;28;20106;-76
2022/03/11 06:09:30;;;;;;;4.90;3.35;;;;;;;;;;4998756;28;20348;-71
2022/03/11 06:11:58;;;;;;;7.57;3.70;;;;;;;;;;5015254;28;20092;-76
2022/03/11 06:14:26;;;;;;;9.00;3.97;;;;;;;;;;4998634;28;20490;-71
2022/03/11 06:16:53;;;;;;;6.85;3.90;;;;;;;;;;5020352;28;20075;-71
2022/03/11 06:19:21;;;;;;;9.73;3.45;;;;;;;;;;5035286;28;20042;-71
2022/03/11 06:21:48;;;;;;;8.23;3.42;;;;;;;;;;5035541;28;20501;-75
2022/03/11 06:24:18;;;;;;;5.38;3.50;;;;;;;;;;5035709;28;20041;-75
2022/03/11 06:26:46;;;;;;;6.22;4.75;;;;;;;;;;5017408;28;20069;-75
2022/03/11 06:29:15;;;;;;;7.53;4.30;;;;;;;;;;5035239;28;20034;-75
2022/03/11 06:31:42;;;;;;;13.00;8.80;;;;;;;;;;5015872;28;20076;-75
2022/03/11 06:34:10;;;;;;;12.45;5.75;;;;;;;;;;5034833;28;20041;-75
2022/03/11 06:36:38;;;;;;;10.25;4.70;;;;;;;;;;5000419;28;20042;-70
2022/03/11 06:39:07;;;;;;;6.13;4.43;;;;;;;;;;5034774;28;20091;-75
2022/03/11 06:41:37;;;;;;;8.88;5.13;;;;;;;;;;5034047;28;20569;-71
2022/03/11 06:44:05;;;;;;;12.52;5.35;;;;;;;;;;5034646;28;20045;-76
2022/03/11 06:46:33;;;;;;;9.48;5.22;;;;;;;;;;5035115;28;20183;-71
2022/03/11 06:49:00;;;;;;;10.05;4.80;;;;;;;;;;5035127;28;20496;-70
2022/03/11 06:51:28;;;;;;;14.73;5.25;;;;;;;;;;5035054;28;20493;-72
2022/03/11 06:54:01;;;;;;;17.25;4.65;;;;;;;;;;5034722;28;20045;-71
2022/03/11 06:56:30;;;;;;;10.80;4.90;;;;;;;;;;5017219;28;20068;-71
2022/03/11 06:58:59;;;;;;;7.28;4.47;;;;;;;;;;5035178;28;20136;-71
2022/03/11 07:01:31;;;;;;;10.55;5.13;;;;;;;;;;5016657;28;20128;-71
2022/03/11 07:04:01;;;;;;;;;;;;;;;;;;5031852;28;20103;-72
2022/03/11 07:06:30;;;;;;;7.95;5.18;;;;;;;;;;5034380;28;20273;-75
2022/03/11 07:08:58;;;;;;;8.48;5.40;;;;;;;;;;5031210;28;20038;-71
2022/03/11 07:11:26;;;;;;;13.90;5.47;;;;;;;;;;5033997;28;20056;-75
2022/03/11 07:13:54;;;;;;;12.02;5.53;;;;;;;;;;5034537;28;20052;-71
2022/03/11 07:16:21;;;;;;;17.15;6.15;;;;;;;;;;5117401;23;20125;-75
2022/03/11 07:18:50;;;;;;;12.82;5.90;;;;;;;;;;5033788;28;20033;-71
2022/03/11 07:21:18;;;;;;;10.35;5.72;;;;;;;;;;5034388;28;20065;-72
2022/03/11 07:23:51;;;;;;;15.55;5.97;;;;;;;;;;5033184;28;20045;-71
2022/03/11 07:26:19;;;;;;;16.70;6.32;;;;;;;;;;5033208;28;20057;-71
2022/03/11 07:28:47;;;;;;;15.93;6.15;;;;;;;;;;5033519;28;20045;-71
2022/03/11 07:31:14;;;;;;;11.90;6.22;;;;;;;;;;5014687;28;20069;-71
2022/03/11 07:33:43;;;;;;;12.43;6.38;;;;;;;;;;5016374;28;20455;-74
2022/03/11 07:36:11;;;;;;;15.98;6.60;;;;;;;;;;5033886;28;20067;-74
2022/03/11 07:38:39;;;;;;;14.13;6.85;;;;;;;;;;5033809;28;20041;-74
2022/03/11 07:41:10;;;;;;;13.02;7.18;;;;;;;;;;5033729;28;20045;-71
2022/03/11 07:43:41;;;;;;;19.65;6.63;;;;;;;;;;5015736;28;20123;-70
2022/03/11 07:46:30;;;;;;;21.30;6.50;;;;;;;;;;5032954;28;20057;-71
2022/03/11 07:48:58;;;;;;;10.00;5.78;;;;;;;;;;5033746;28;20045;-75
2022/03/11 07:51:30;;;;;;;16.77;5.45;;;;;;;;;;5033749;28;20048;-70
2022/03/11 07:53:58;;;;;;;9.32;5.38;;;;;;;;;;5033771;28;20526;-71
2022/03/11 07:56:25;;;;;;;14.43;5.45;;;;;;;;;;5033279;28;20041;-70
2022/03/11 07:58:57;;;;;;;12.40;5.53;;;;;;;;;;5033381;28;20056;-75
2022/03/11 08:01:25;;;;;;;10.70;5.40;;;;;;;;;;5033616;28;20493;-74
2022/03/11 08:03:53;;;;;;;11.55;5.00;;;;;;;;;;5033463;28;20038;-74
2022/03/11 08:06:20;;;;;;;8.02;4.65;;;;;;;;;;5033468;28;20042;-70
2022/03/11 08:08:57;;;;;;;9.10;4.78;;;;;;;;;;5033273;28;20080;-74
2022/03/11 08:11:25;;;;;;;5.65;4.13;;;;;;;;;;5033210;28;20377;-71
2022/03/11 08:13:53;;;;;;;10.63;4.55;;;;;;;;;;5033453;28;20073;-71
2022/03/11 08:16:22;;;;;;;6.15;3.85;;;;;;;;;;5033241;28;20040;-74
2022/03/11 08:18:51;;;;;;;8.23;3.65;;;;;;;;;;5033171;28;20189;-74
2022/03/11 08:21:18;;;;;;;4.50;2.72;;;;;;;;;;5033016;28;20049;-70
2022/03/11 08:23:49;;;;;;;5.13;3.50;;;;;;;;;;5033141;28;20069;-71
2022/03/11 08:26:17;;;;;;;7.93;4.10;;;;;;;;;;5033378;28;20040;-75
2022/03/11 08:28:45;;;;;;;7.25;4.15;;;;;;;;;;5033073;28;20045;-71
2022/03/11 08:31:33;;;;;;;9.15;3.83;;;;;;;;;;5032777;28;20478;-71
2022/03/11 08:34:08;;;;;;;6.15;3.58;;;;;;;;;;5033129;28;20050;-71
2022/03/11 08:36:36;;;;;;;5.15;3.58;;;;;;;;;;5032956;28;20037;-74
2022/03/11 08:39:08;;;;;;;5.13;3.70;;;;;;;;;;5031959;28;20048;-70
2022/03/11 08:41:39;;;;;;;5.30;3.33;;;;;;;;;;5015846;28;20038;-74
2022/03/11 08:44:06;;;;;;;7.18;3.40;;;;;;;;;;5032599;28;20096;-74
2022/03/11 08:46:35;;;;;;;4.88;3.50;;;;;;;;;;5032855;28;20075;-70
2022/03/11 08:49:06;;;;;;;7.53;3.90;;;;;;;;;;5032662;28;20112;-70
2022/03/11 08:51:34;;;;;;;6.90;3.40;;;;;;;;;;5033010;28;20047;-70
2022/03/11 08:54:03;;;;;;;4.68;2.97;;;;;;;;;;5032505;28;20049;-74
2022/03/11 08:56:31;;;;;;;4.72;3.20;;;;;;;;;;5032317;28;20409;-70
2022/03/11 08:59:00;;;;;;;3.33;2.83;;;;;;;;;;5030790;28;20512;-74
2022/03/11 09:01:28;;;;;;;3.22;2.55;;;;;;;;;;5032691;28;20060;-73
2022/03/11 09:03:57;;;;;;;2.65;2.25;;;;;;;;;;5032489;28;20037;-74
2022/03/11 09:06:25;;;;;;;2.85;2.55;;;;;;;;;;5014952;28;20073;-70
2022/03/11 09:08:53;;;;;;;3.20;2.40;;;;;;;;;;5032461;28;20048;-70
2022/03/11 09:11:21;;;;;;;3.38;2.20;;;;;;;;;;5032495;28;20547;-73
2022/03/11 09:13:49;;;;;;;5.90;2.60;;;;;;;;;;5031309;28;20096;-74
2022/03/11 09:16:17;;;;;;;6.38;2.72;;;;;;;;;;5032054;28;20041;-72
2022/03/11 09:18:48;;;;;;;3.03;2.53;;;;;;;;;;5012889;28;20457;-74
2022/03/11 09:21:16;;;;;;;6.05;2.58;;;;;;;;;;5012302;28;20044;-69
2022/03/11 09:23:43;;;;;;;5.07;2.45;;;;;;;;;;4994713;28;20484;-71
2022/03/11 09:26:11;;;;;;;5.43;2.40;;;;;;;;;;5012543;28;20052;-72
2022/03/11 09:28:39;;;;;;;3.92;2.30;;;;;;;;;;5012423;28;20133;-68
2022/03/11 09:31:08;;;;;;;2.90;2.30;;;;;;;;;;5012378;28;20121;-72
2022/03/11 09:33:36;;;;;;;2.53;2.25;;;;;;;;;;5012472;28;20045;-75
2022/03/11 09:36:04;;;;;;;2.50;2.30;;;;;;;;;;5005495;28;20053;-75
2022/03/11 09:38:36;;;;;;;3.92;2.60;;;;;;;;;;5011350;28;20054;-71
2022/03/11 09:41:05;;;;;;;5.45;2.67;;;;;;;;;;5011311;28;20485;-70
2022/03/11 09:43:32;;;;;;;3.35;2.50;;;;;;;;;;5011929;28;20049;-70
2022/03/11 09:46:00;;;;;;;8.45;2.67;;;;;;;;;;5010348;28;20050;-74
2022/03/11 09:48:28;;;;;;;9.13;2.88;;;;;;;;;;5012690;28;20372;-70
2022/03/11 09:50:58;;;;;;;3.55;2.70;;;;;;;;;;5012243;28;20040;-74
2022/03/11 09:53:27;;;;;;;5.03;2.60;;;;;;;;;;5012291;28;20045;-74
2022/03/11 09:55:56;;;;;;;5.75;2.53;;;;;;;;;;5010728;28;20042;-71
2022/03/11 09:58:24;;;;;;;3.95;2.55;;;;;;;;;;5012310;28;20128;-71
2022/03/11 10:00:52;;;;;;;3.40;2.78;;;;;;;;;;5012340;28;20033;-71
2022/03/11 10:03:22;;;;;;;2.67;2.42;;;;;;;;;;5012516;28;20052;-70
2022/03/11 10:05:53;;;;;;;4.47;2.92;;;;;;;;;;5012011;28;20387;-70
2022/03/11 10:08:32;;;;;;;3.58;2.55;;;;;;;;;;5012085;28;20410;-70
2022/03/11 10:11:20;;;;;;;4.53;2.75;;;;;;;;;;5014831;28;20089;-70
2022/03/11 10:13:51;;;;;;;3.95;2.65;;;;;;;;;;5015908;28;20511;-74
2022/03/11 10:16:20;;;;;;;4.93;2.65;;;;;;;;;;5015718;28;20046;-70
2022/03/11 10:18:56;;;;;;;6.20;2.65;;;;;;;;;;5015608;28;20057;-70
2022/03/11 10:21:31;;;;;;;3.50;2.63;;;;;;;;;;5015501;28;20042;-73
2022/03/11 10:23:59;;;;;;;5.05;2.85;;;;;;;;;;5015373;28;20046;-74
2022/03/11 10:26:31;;;;;;;8.18;3.67;;;;;;;;;;5015824;28;20045;-74
2022/03/11 10:28:59;;;;;;;7.22;2.90;;;;;;;;;;5015282;28;20124;-70
2022/03/11 10:31:36;;;;;;;10.38;3.00;;;;;;;;;;5015015;28;20057;-74
2022/03/11 10:34:14;;;;;;;4.15;3.08;;;;;;;;;;5014822;28;20081;-70
2022/03/11 10:36:52;;;;;;;6.03;2.97;;;;;;;;;;5015601;28;20054;-70
2022/03/11 10:39:30;;;;;;;7.45;3.38;;;;;;;;;;5015153;28;20044;-70
2022/03/11 10:42:19;;;;;;;9.88;3.60;;;;;;;;;;5015228;28;20096;-70
2022/03/11 10:44:55;;;;;;;7.60;3.20;;;;;;;;;;5015095;28;20111;-71
2022/03/11 10:47:23;;;;;;;4.65;3.28;;;;;;;;;;5010840;28;20049;-74
2022/03/11 10:49:54;;;;;;;9.95;3.72;;;;;;;;;;5015117;28;20536;-74
2022/03/11 10:52:38;;;;;;;6.72;3.45;;;;;;;;;;5014969;28;20041;-70
2022/03/11 10:55:18;;;;;;;6.28;3.40;;;;;;;;;;5013730;28;20221;-74
2022/03/11 10:57:46;;;;;;;9.52;3.60;;;;;;;;;;5013693;28;20353;-75
2022/03/11 11:00:27;;;;;;;7.47;3.50;;;;;;;;;;5013754;28;20053;-74
2022/03/11 11:02:56;;;;;;;7.45;3.58;;;;;;;;;;5014675;28;20050;-70
2022/03/11 11:05:26;;;;;;;9.63;3.88;;;;;;;;;;5013772;28;20113;-70
2022/03/11 11:07:54;;;;;;;6.45;3.88;;;;;;;;;;5014331;28;20038;-71
2022/03/11 11:10:23;;;;;;;6.20;3.47;;;;;;;;;;5014759;28;20042;-71
2022/03/11 11:12:53;;;;;;;7.50;3.63;;;;;;;;;;5013067;28;20042;-74
2022/03/11 11:15:21;;;;;;;6.20;3.42;;;;;;;;;;5014772;28;20080;-71
2022/03/11 11:17:57;;;;;;;5.90;3.30;;;;;;;;;;5014499;28;20046;-70
2022/03/11 11:20:36;;;;;;;6.45;3.35;;;;;;;;;;5013741;28;20521;-74
2022/03/11 11:23:06;;;;;;;10.25;3.63;;;;;;;;;;5014485;28;20052;-74
2022/03/11 11:25:37;;;;;;;8.30;3.72;;;;;;;;;;5014334;28;20046;-74
2022/03/11 11:28:11;;;;;;;11.65;3.70;;;;;;;;;;5014197;28;20112;-74
2022/03/11 11:30:39;;;;;;;6.87;3.20;;;;;;;;;;5014256;28;20417;-70
2022/03/11 11:33:07;;;;;;;8.98;3.60;;;;;;;;;;5014056;28;20076;-74
2022/03/11 11:35:36;;;;;;;7.45;3.60;;;;;;;;;;5014337;28;20034;-74
2022/03/11 11:38:24;;;;;;;9.32;3.50;;;;;;;;;;5014462;28;20058;-70
2022/03/11 11:40:53;;;;;;;5.70;3.13;;;;;;;;;;5004353;28;20528;-71
2022/03/11 11:43:27;;;;;;;8.27;3.30;;;;;;;;;;5013999;28;20069;-74
2022/03/11 11:46:04;;;;;;;6.05;3.30;;;;;;;;;;5013980;28;20128;-70
2022/03/11 11:48:32;;;;;;;10.70;3.83;;;;;;;;;;5014128;28;20064;-71
2022/03/11 11:51:00;;;;;;;9.18;3.58;;;;;;;;;;5014141;28;20528;-70
2022/03/11 11:53:32;;;;;;;4.53;3.40;;;;;;;;;;5013845;28;20049;-70
2022/03/11 11:56:01;;;;;;;6.57;3.28;;;;;;;;;;5013601;28;20488;-70
2022/03/11 11:58:32;;;;;;;5.30;3.47;;;;;;;;;;5013929;28;20049;-74
2022/03/11 12:01:02;;;;;;;5.90;3.20;;;;;;;;;;5013792;28;20049;-74
2022/03/11 12:03:49;;;;;;;4.82;3.10;;;;;;;;;;5013773;28;20409;-74
2022/03/11 12:06:39;;;;;;;4.68;3.08;;;;;;;;;;5028839;28;20464;-71
2022/03/11 12:09:07;;;;;;;10.85;3.90;;;;;;;;;;5012768;28;20093;-70
2022/03/11 12:11:40;;;;;;;6.40;3.70;;;;;;;;;;5013667;28;20046;-70
2022/03/11 12:14:08;;;;;;;8.63;4.05;;;;;;;;;;5013481;28;20456;-74
2022/03/11 12:16:54;;;;;;;7.22;3.92;;;;;;;;;;5013203;28;20049;-74
2022/03/11 12:19:44;;;;;;;6.82;3.90;;;;;;;;;;5013295;28;20046;-74
2022/03/11 12:22:29;;;;;;;8.50;3.35;;;;;;;;;;5013583;28;20054;-70
2022/03/11 12:25:05;;;;;;;6.75;3.08;;;;;;;;;;5008905;28;20449;-74
2022/03/11 12:27:51;;;;;;;7.70;3.40;;;;;;;;;;5009061;28;20077;-70
2022/03/11 12:30:20;;;;;;;8.10;4.03;;;;;;;;;;4993823;28;20126;-70
2022/03/11 12:32:49;;;;;;;5.65;3.55;;;;;;;;;;4993286;28;20039;-74
2022/03/11 12:35:20;;;;;;;5.88;3.33;;;;;;;;;;4993977;28;20170;-70
2022/03/11 12:37:51;;;;;;;6.63;3.30;;;;;;;;;;4992513;28;20054;-70
2022/03/11 12:40:26;;;;;;;8.05;3.67;;;;;;;;;;5017450;28;20112;-74
2022/03/11 12:43:00;;;;;;;7.60;4.05;;;;;;;;;;5012466;28;20474;-74
2022/03/11 12:45:35;;;;;;;10.77;4.00;;;;;;;;;;5012239;28;20120;-71
2022/03/11 12:48:06;;;;;;;5.05;3.60;;;;;;;;;;5012422;28;20512;-73
2022/03/11 12:50:34;;;;;;;7.80;3.30;;;;;;;;;;5010156;28;20037;-74
2022/03/11 12:53:03;;;;;;;7.00;3.05;;;;;;;;;;5012451;28;20034;-74
2022/03/11 12:55:32;;;;;;;9.93;3.10;;;;;;;;;;5012034;28;20042;-70
2022/03/11 12:58:02;;;;;;;6.90;3.50;;;;;;;;;;5012148;28;20045;-70
2022/03/11 13:00:37;;;;;;;5.73;3.30;;;;;;;;;;5012619;28;20104;-73
2022/03/11 13:03:11;;;;;;;4.60;3.60;;;;;;;;;;5012788;28;20046;-70
2022/03/11 13:05:42;;;;;;;9.45;3.83;;;;;;;;;;5012431;28;20057;-69
2022/03/11 13:08:15;;;;;;;5.25;3.40;;;;;;;;;;4994637;28;20353;-70
2022/03/11 13:10:46;;;;;;;12.23;3.47;;;;;;;;;;5012579;28;20374;-70
2022/03/11 13:13:14;;;;;;;5.95;3.20;;;;;;;;;;5010134;28;20477;-71
2022/03/11 13:15:46;;;;;;;10.10;3.08;;;;;;;;;;5010778;28;20137;-71
2022/03/11 13:18:20;;;;;;;6.78;3.83;;;;;;;;;;5006454;28;20050;-74
2022/03/11 13:20:47;;;;;;;6.35;3.50;;;;;;;;;;5011421;28;20069;-70
2022/03/11 13:23:16;;;;;;;10.73;3.75;;;;;;;;;;5011934;28;20119;-73
2022/03/11 13:25:46;;;;;;;4.30;3.28;;;;;;;;;;5012103;28;20126;-74
2022/03/11 13:28:21;;;;;;;14.02;4.18;;;;;;;;;;5012391;28;20076;-74
2022/03/11 13:30:55;;;;;;;8.70;3.38;;;;;;;;;;5012253;28;20053;-71
2022/03/11 13:33:23;;;;;;;7.38;3.50;;;;;;;;;;5012314;28;20081;-74
2022/03/11 13:36:22;;;;;;;7.05;3.50;;;;;;;;;;5008867;28;20096;-71
2022/03/11 13:39:09;;;;;;;5.75;3.53;;;;;;;;;;4999900;28;20421;-74
2022/03/11 13:41:48;;;;;;;11.85;4.38;;;;;;;;;;5000600;28;20048;-74
2022/03/11 13:44:28;;;;;;;8.15;3.60;;;;;;;;;;4996674;28;20049;-70
2022/03/11 13:46:55;;;;;;;8.40;3.53;;;;;;;;;;5003078;28;20045;-69
2022/03/11 13:49:45;;;;;;;8.00;3.65;;;;;;;;;;5019341;28;20301;-70
2022/03/11 13:52:13;;;;;;;;;;;;;;;;;;5008094;28;20088;-73
2022/03/11 13:54:42;;;;;;;7.10;3.67;;;;;;;;;;5002234;28;19926;-72
2022/03/11 13:57:26;;;;;;;6.63;3.33;;;;;;;;;;5007910;28;20074;-75
2022/03/11 14:00:15;;;;;;;8.90;3.40;;;;;;;;;;5012334;28;20034;-70
2022/03/11 14:02:43;;;;;;;6.40;3.53;;;;;;;;;;5042377;28;20120;-74
2022/03/11 14:05:12;;;;;;;5.75;3.35;;;;;;;;;;5009514;28;20073;-69
2022/03/11 14:07:44;;;;;;;6.63;3.45;;;;;;;;;;5007475;28;20052;-70
2022/03/11 14:10:16;;;;;;;6.47;3.38;;;;;;;;;;5002953;28;20034;-74
2022/03/11 14:12:45;;;;;;;6.68;3.75;;;;;;;;;;5001678;28;20486;-74
2022/03/11 14:15:31;;;;;;;6.95;3.90;;;;;;;;;;5004973;28;20038;-70
2022/03/11 14:18:02;;;;;;;8.53;3.47;;;;;;;;;;5006197;28;20046;-71
2022/03/11 14:20:53;;;;;;;7.88;3.70;;;;;;;;;;5019004;28;20073;-74
2022/03/11 14:23:21;;;;;;;8.32;3.78;;;;;;;;;;5016052;28;20065;-74
2022/03/11 14:25:49;;;;;;;4.93;3.38;;;;;;;;;;5018792;28;20042;-75
2022/03/11 14:28:20;;;;;;;10.15;3.60;;;;;;;;;;5014479;28;20620;-75
2022/03/11 14:30:49;;;;;;;;;;;;;;;;;;5013551;28;20058;-70
2022/03/11 14:33:25;;;;;;;4.70;3.22;;;;;;;;;;5014125;28;19999;-70
2022/03/11 14:35:58;;;;;;;8.85;3.30;;;;;;;;;;5022614;28;20425;-73
2022/03/11 14:38:26;;;;;;;5.05;3.40;;;;;;;;;;5028755;28;20083;-74
2022/03/11 14:40:57;;;;;;;9.43;4.03;;;;;;;;;;5024890;28;20057;-73
2022/03/11 14:43:25;;;;;;;9.93;3.67;;;;;;;;;;5023437;28;20041;-74
2022/03/11 14:45:59;;;;;;;9.80;4.07;;;;;;;;;;5024716;28;20060;-70
2022/03/11 14:48:34;;;;;;;6.88;4.40;;;;;;;;;;5022117;28;20049;-68
2022/03/11 14:51:02;;;;;;;11.30;4.28;;;;;;;;;;5016558;28;20144;-68
2022/03/11 14:53:35;;;;;;;6.40;3.83;;;;;;;;;;5016494;28;20464;-68
2022/03/11 14:56:02;;;;;;;11.75;4.28;;;;;;;;;;5012641;28;20133;-68
2022/03/11 14:58:30;;;;;;;9.52;4.20;;;;;;;;;;5013965;28;20061;-69